TimeMST,TemperatureF,Dew PointF,Humidity,Sea Level PressureIn,VisibilityMPH,Wind Direction,Wind SpeedMPH,Gust SpeedMPH,PrecipitationIn,Events,Conditions,WindDirDegrees,DateUTC
12:56 AM,-0.0,-4.0,83,30.01,-9999.0,Calm,Calm,-,N/A,,Unknown,0,2013-03-04 07:56:00
1:56 AM,-5.1,-9.9,80,30.06,-9999.0,Calm,Calm,-,N/A,,Unknown,0,2013-03-04 08:56:00
2:56 AM,-6.0,-11.0,79,30.09,-9999.0,Calm,Calm,-,N/A,,Unknown,0,2013-03-04 09:56:00
3:56 AM,-8.0,-13.0,79,30.12,-9999.0,Calm,Calm,-,N/A,,Unknown,0,2013-03-04 10:56:00
4:56 AM,-8.0,-13.0,79,30.16,-9999.0,Calm,Calm,-,N/A,,Unknown,0,2013-03-04 11:56:00
5:56 AM,-5.1,-9.0,83,30.19,-9999.0,Calm,Calm,-,N/A,,Unknown,0,2013-03-04 12:56:00
6:56 AM,-9.0,-13.0,83,30.25,-9999.0,WNW,3.5,-,N/A,,Unknown,290,2013-03-04 13:56:00
7:56 AM,3.0,-2.0,80,30.22,-9999.0,Variable,3.5,-,N/A,,Unknown,0,2013-03-04 14:56:00
8:56 AM,8.1,-0.0,70,30.21,-9999.0,West,8.1,-,N/A,,Unknown,280,2013-03-04 15:56:00
9:56 AM,12.0,1.0,61,30.23,-9999.0,Variable,4.6,-,N/A,,Unknown,0,2013-03-04 16:56:00
10:56 AM,14.0,-0.9,52,30.25,-9999.0,West,9.2,-,N/A,,Unknown,280,2013-03-04 17:56:00
11:56 AM,14.0,-0.9,52,30.30,-9999.0,Calm,Calm,-,N/A,,Unknown,0,2013-03-04 18:56:00
12:56 PM,17.1,-2.0,43,30.31,-9999.0,Variable,6.9,-,N/A,,Unknown,0,2013-03-04 19:56:00
1:56 PM,17.1,-0.0,47,30.36,-9999.0,NW,6.9,-,N/A,,Unknown,320,2013-03-04 20:56:00
2:56 PM,17.1,1.0,50,30.39,-9999.0,Variable,3.5,-,N/A,,Unknown,0,2013-03-04 21:56:00
3:56 PM,16.0,1.9,54,30.42,-9999.0,Calm,Calm,-,N/A,,Unknown,0,2013-03-04 22:56:00
4:56 PM,14.0,3.0,62,30.43,-9999.0,Calm,Calm,-,N/A,,Unknown,0,2013-03-04 23:56:00
5:56 PM,10.9,1.9,67,30.44,-9999.0,Calm,Calm,-,N/A,,Unknown,0,2013-03-05 00:56:00
6:56 PM,5.0,-0.0,80,30.52,-9999.0,Calm,Calm,-,N/A,,Unknown,0,2013-03-05 01:56:00
7:56 PM,-0.9,-5.1,83,30.49,-9999.0,NNW,3.5,-,N/A,,Unknown,330,2013-03-05 02:56:00
8:56 PM,-5.1,-9.9,80,30.50,-9999.0,Calm,Calm,-,N/A,,Unknown,0,2013-03-05 03:56:00
9:56 PM,-9.0,-14.1,79,30.51,-9999.0,Calm,Calm,-,N/A,,Unknown,0,2013-03-05 04:56:00
10:56 PM,-9.0,-14.1,79,30.50,-9999.0,Calm,Calm,-,N/A,,Unknown,0,2013-03-05 05:56:00
11:56 PM,-9.9,-16.1,74,30.51,-9999.0,Calm,Calm,-,N/A,,Unknown,0,2013-03-05 06:56:00